Newton-City-County Information

FAA: EWK - ICAO: KEWK

Newton-City-County (Airport) Location

State Kansas
County Harvey
City Newton
Newton-City-County (Airport) is 3 miles east of Newton, KS.
Latitude 38-03-25.5650N
Longitude 097-16-30.8220W
Elevation 1,533ft

Newton-City-County METARs

METAR KEWK 251556Z AUTO 04012KT 10SM FEW110 M08/M16 A3032 RMK AO2 SLP284 T10781156 FZRANO
Altimeter 30.32"
Temperature -7.8°C (18.0°F)
Wind 40° at 12KT
Clouds few at 11,000ft
Visibility 10.0mi
Time observed: 2022-01-25T15:56:00Z

Newton-City-County (Airport) Details

Status Operational
Activation February 1944
Ownership Public
Usage Public
Chart WICHITA
ATC on-site No
Beacon schedule sunset-sunrise
Beacon color clear green

Newton-City-County (Airport) Contacts

Owner CITY OF NEWTON HARVEY CO
Owner address 810 N. OLIVER ROAD - BOX 426, NEWTON, KS 67114
Owner phone 316-284-6089
Manager CRAIG ELSEY
Manager address P.O. BOX 56, MINNEOLA, KS 67865
Manager phone 620-885-4766

Newton-City-County Radio Frequencies

Newton-City-County (Airport) Radio Frequencies

UNICOM 123
Common traffic advisory frequency (CTAF) 123